Time;durP1;ratioP1;P1;durP2;ratioP2;P2;SDS_P1;SDS_P2;PMS_P1;PMS_P2;Temp;Humidity;BMP_temperature;BMP_pressure;BME280_temperature;BME280_humidity;BME280_pressure;Samples;Min_cycle;Max_cycle;Signal;HPM_P1;HPM_P2
2022/04/13 00:01:47;;;;;;;3.37;2.53;;;;;;;;;;4992939;28;20386;-48
2022/04/13 00:04:14;;;;;;;4.70;2.80;;;;;;;;;;4993129;28;20382;-47
2022/04/13 00:06:40;;;;;;;2.87;2.63;;;;;;;;;;4992735;28;20436;-49
2022/04/13 00:09:07;;;;;;;3.17;2.87;;;;;;;;;;4989986;28;20465;-53
2022/04/13 00:11:33;;;;;;;8.43;3.17;;;;;;;;;;4991553;28;20457;-47
2022/04/13 00:13:59;;;;;;;3.40;3.10;;;;;;;;;;4992732;28;20952;-48
2022/04/13 00:16:25;;;;;;;7.00;3.30;;;;;;;;;;4992027;28;20527;-47
2022/04/13 00:18:51;;;;;;;7.37;3.83;;;;;;;;;;4992740;28;20449;-47
2022/04/13 00:21:17;;;;;;;2.90;2.70;;;;;;;;;;4992854;28;20409;-49
2022/04/13 00:23:43;;;;;;;2.80;2.60;;;;;;;;;;4992655;28;20404;-47
2022/04/13 00:26:09;;;;;;;3.30;3.00;;;;;;;;;;4994498;28;20440;-51
2022/04/13 00:28:35;;;;;;;4.90;2.43;;;;;;;;;;4994474;28;20471;-47
2022/04/13 00:31:01;;;;;;;6.13;3.10;;;;;;;;;;4992566;28;20442;-48
2022/04/13 00:33:27;;;;;;;3.30;2.77;;;;;;;;;;4992372;28;20448;-48
2022/04/13 00:35:56;;;;;;;4.90;3.37;;;;;;;;;;4992038;28;20468;-47
2022/04/13 00:38:23;;;;;;;3.33;3.00;;;;;;;;;;4981753;28;20426;-52
2022/04/13 00:40:49;;;;;;;6.13;3.10;;;;;;;;;;4991715;28;20430;-47
2022/04/13 00:43:15;;;;;;;3.60;2.80;;;;;;;;;;4981712;28;20435;-47
2022/04/13 00:45:48;;;;;;;3.20;2.97;;;;;;;;;;4992225;28;20544;-47
2022/04/13 00:48:20;;;;;;;2.97;2.70;;;;;;;;;;4992522;28;20870;-51
2022/04/13 00:50:46;;;;;;;5.60;3.20;;;;;;;;;;4992448;28;20379;-47
2022/04/13 00:53:14;;;;;;;5.40;3.10;;;;;;;;;;4992345;28;20901;-47
2022/04/13 00:55:41;;;;;;;5.57;3.03;;;;;;;;;;4991971;28;20575;-47
2022/04/13 00:58:08;;;;;;;4.63;3.23;;;;;;;;;;4992407;28;20408;-47
2022/04/13 01:00:38;;;;;;;3.70;3.40;;;;;;;;;;4992428;28;20376;-50
2022/04/13 01:03:07;;;;;;;5.87;3.07;;;;;;;;;;4991612;28;20453;-50
2022/04/13 01:05:33;;;;;;;2.97;2.77;;;;;;;;;;4991465;28;20424;-47
2022/04/13 01:07:59;;;;;;;8.30;3.13;;;;;;;;;;4991669;28;20405;-47
2022/04/13 01:10:27;;;;;;;5.33;3.17;;;;;;;;;;4992423;28;20385;-47
2022/04/13 01:12:53;;;;;;;3.77;2.63;;;;;;;;;;4992180;28;20414;-49
2022/04/13 01:15:19;;;;;;;4.63;2.70;;;;;;;;;;4991853;28;20902;-50
2022/04/13 01:17:46;;;;;;;5.00;2.83;;;;;;;;;;4991910;28;20400;-49
2022/04/13 01:20:12;;;;;;;4.03;3.13;;;;;;;;;;4992263;28;20473;-47
2022/04/13 01:22:38;;;;;;;3.60;3.30;;;;;;;;;;4992198;28;20392;-47
2022/04/13 01:25:04;;;;;;;7.03;2.83;;;;;;;;;;4991894;28;20494;-48
2022/04/13 01:27:30;;;;;;;4.20;2.73;;;;;;;;;;4992198;28;20387;-47
2022/04/13 01:29:56;;;;;;;7.27;2.73;;;;;;;;;;4992446;28;20443;-49
2022/04/13 01:32:22;;;;;;;3.23;2.90;;;;;;;;;;4995817;28;20936;-48
2022/04/13 01:34:49;;;;;;;3.33;3.00;;;;;;;;;;4995443;28;20551;-48
2022/04/13 01:37:16;;;;;;;3.47;3.20;;;;;;;;;;4995671;28;20836;-47
2022/04/13 01:39:42;;;;;;;5.30;4.00;;;;;;;;;;4995844;28;20409;-46
2022/04/13 01:42:08;;;;;;;5.83;3.87;;;;;;;;;;4995729;28;20374;-47
2022/04/13 01:44:34;;;;;;;7.13;3.23;;;;;;;;;;4995481;28;20467;-47
2022/04/13 01:47:00;;;;;;;5.43;3.57;;;;;;;;;;4995686;28;21008;-47
2022/04/13 01:49:26;;;;;;;6.13;4.33;;;;;;;;;;4995780;28;20386;-48
2022/04/13 01:51:51;;;;;;;4.50;3.97;;;;;;;;;;4995407;28;20406;-48
2022/04/13 01:54:17;;;;;;;5.93;3.93;;;;;;;;;;4995301;28;20908;-49
2022/04/13 01:56:43;;;;;;;14.90;5.07;;;;;;;;;;4995042;28;20501;-51
2022/04/13 01:59:10;;;;;;;9.40;4.37;;;;;;;;;;4995003;28;20440;-47
2022/04/13 02:01:45;;;;;;;6.03;4.00;;;;;;;;;;4995398;28;20930;-47
2022/04/13 02:04:29;;;;;;;9.07;4.70;;;;;;;;;;4995998;28;20383;-47
2022/04/13 02:06:55;;;;;;;19.30;6.77;;;;;;;;;;5011923;28;20411;-48
2022/04/13 02:09:21;;;;;;;18.03;6.90;;;;;;;;;;5014856;28;20407;-47
2022/04/13 02:11:47;;;;;;;14.37;7.80;;;;;;;;;;5014562;28;20766;-51
2022/04/13 02:14:13;;;;;;;12.73;8.10;;;;;;;;;;5014659;28;20399;-48
2022/04/13 02:16:39;;;;;;;9.33;7.20;;;;;;;;;;5002565;28;20546;-50
2022/04/13 02:19:11;;;;;;;16.83;6.00;;;;;;;;;;4995057;28;20486;-48
2022/04/13 02:21:37;;;;;;;11.93;7.50;;;;;;;;;;4995044;28;20454;-47
2022/04/13 02:24:04;;;;;;;7.70;6.00;;;;;;;;;;4994589;28;20950;-46
2022/04/13 02:26:30;;;;;;;10.00;5.67;;;;;;;;;;4994213;28;20406;-51
2022/04/13 02:28:56;;;;;;;9.30;5.20;;;;;;;;;;4994157;28;20822;-47
2022/04/13 02:31:22;;;;;;;8.27;4.43;;;;;;;;;;4994125;28;20416;-47
2022/04/13 02:33:51;;;;;;;5.70;4.60;;;;;;;;;;4994274;28;20434;-46
2022/04/13 02:36:17;;;;;;;5.07;4.57;;;;;;;;;;4994166;28;21036;-47
2022/04/13 02:38:43;;;;;;;6.60;4.37;;;;;;;;;;4994163;28;20446;-47
2022/04/13 02:41:09;;;;;;;8.47;5.70;;;;;;;;;;4992901;28;20900;-46
2022/04/13 02:43:35;;;;;;;20.43;7.20;;;;;;;;;;4994363;28;20390;-49
2022/04/13 02:46:01;;;;;;;7.67;4.70;;;;;;;;;;4994140;28;20529;-50
2022/04/13 02:48:27;;;;;;;7.93;4.60;;;;;;;;;;4994411;28;20406;-46
2022/04/13 02:50:53;;;;;;;7.83;4.70;;;;;;;;;;4994622;28;20741;-47
2022/04/13 02:53:19;;;;;;;8.10;4.70;;;;;;;;;;4994208;28;20381;-49
2022/04/13 02:55:45;;;;;;;4.03;3.50;;;;;;;;;;4993835;28;20434;-46
2022/04/13 02:58:11;;;;;;;3.93;3.00;;;;;;;;;;4994226;28;20412;-46
2022/04/13 03:00:37;;;;;;;6.03;3.90;;;;;;;;;;4994205;28;20408;-48
2022/04/13 03:03:03;;;;;;;3.43;3.10;;;;;;;;;;4994218;28;20383;-47
2022/04/13 03:05:30;;;;;;;4.60;3.10;;;;;;;;;;4993846;28;20792;-47
2022/04/13 03:07:56;;;;;;;9.20;3.50;;;;;;;;;;4993864;28;20450;-48
2022/04/13 03:10:22;;;;;;;3.70;3.40;;;;;;;;;;4994033;28;20492;-48
2022/04/13 03:12:48;;;;;;;4.57;3.30;;;;;;;;;;4994157;28;20412;-48
2022/04/13 03:15:14;;;;;;;6.10;3.13;;;;;;;;;;4993560;28;20502;-47
2022/04/13 03:17:41;;;;;;;4.13;3.33;;;;;;;;;;4993880;28;20380;-47
2022/04/13 03:20:07;;;;;;;3.77;3.37;;;;;;;;;;4993852;28;20831;-47
2022/04/13 03:22:33;;;;;;;3.77;3.47;;;;;;;;;;4993627;28;20896;-47
2022/04/13 03:25:00;;;;;;;4.00;3.30;;;;;;;;;;4993407;28;20441;-47
2022/04/13 03:27:26;;;;;;;5.80;3.83;;;;;;;;;;4993823;28;20403;-47
2022/04/13 03:29:52;;;;;;;3.83;3.20;;;;;;;;;;4993651;28;20410;-47
2022/04/13 03:32:18;;;;;;;5.97;3.83;;;;;;;;;;4993477;28;20490;-47
2022/04/13 03:34:44;;;;;;;4.33;3.20;;;;;;;;;;4993700;28;20413;-47
2022/04/13 03:37:10;;;;;;;6.70;3.60;;;;;;;;;;4993236;28;20411;-46
2022/04/13 03:39:37;;;;;;;2.93;2.73;;;;;;;;;;4993680;28;20798;-47
2022/04/13 03:42:03;;;;;;;4.00;3.60;;;;;;;;;;4993337;28;20415;-46
2022/04/13 03:44:29;;;;;;;7.97;3.93;;;;;;;;;;4993093;28;20377;-50
2022/04/13 03:46:55;;;;;;;4.33;3.23;;;;;;;;;;4993442;28;20805;-47
2022/04/13 03:49:21;;;;;;;4.43;3.27;;;;;;;;;;4993278;28;20381;-46
2022/04/13 03:51:47;;;;;;;6.13;3.20;;;;;;;;;;4992899;28;20442;-47
2022/04/13 03:54:13;;;;;;;5.03;3.30;;;;;;;;;;4992520;28;20492;-49
2022/04/13 03:56:39;;;;;;;5.43;3.33;;;;;;;;;;4991534;28;20547;-47
2022/04/13 03:59:07;;;;;;;4.73;3.63;;;;;;;;;;4991434;28;20483;-47
2022/04/13 04:01:33;;;;;;;5.13;4.00;;;;;;;;;;4991549;28;20466;-48
2022/04/13 04:03:59;;;;;;;4.87;4.00;;;;;;;;;;4992736;28;20412;-50
2022/04/13 04:06:26;;;;;;;4.73;3.23;;;;;;;;;;4992631;28;20484;-47
2022/04/13 04:08:52;;;;;;;6.77;3.40;;;;;;;;;;4993055;28;20408;-48
2022/04/13 04:11:18;;;;;;;10.40;3.83;;;;;;;;;;4992941;28;20472;-49
2022/04/13 04:13:44;;;;;;;7.13;3.80;;;;;;;;;;4993015;28;20409;-47
2022/04/13 04:16:10;;;;;;;6.07;3.60;;;;;;;;;;4992561;28;20470;-46
2022/04/13 04:18:37;;;;;;;3.47;3.20;;;;;;;;;;4992894;28;20513;-47
2022/04/13 04:21:03;;;;;;;4.27;3.50;;;;;;;;;;4992692;28;20408;-47
2022/04/13 04:23:29;;;;;;;5.07;3.70;;;;;;;;;;4992763;28;20899;-47
2022/04/13 04:25:55;;;;;;;4.90;3.30;;;;;;;;;;4992510;28;20449;-47
2022/04/13 04:28:20;;;;;;;6.43;3.33;;;;;;;;;;4992647;28;20433;-49
2022/04/13 04:30:46;;;;;;;7.53;3.30;;;;;;;;;;4992656;28;20465;-47
2022/04/13 04:33:12;;;;;;;7.13;3.93;;;;;;;;;;4992557;28;20463;-46
2022/04/13 04:35:39;;;;;;;4.70;3.50;;;;;;;;;;4992140;28;21020;-47
2022/04/13 04:38:05;;;;;;;3.47;3.17;;;;;;;;;;4992508;28;20753;-46
2022/04/13 04:40:31;;;;;;;4.80;4.00;;;;;;;;;;4992700;28;20409;-47
2022/04/13 04:43:00;;;;;;;5.90;5.40;;;;;;;;;;4992595;28;20412;-46
2022/04/13 04:45:26;;;;;;;7.50;4.17;;;;;;;;;;4992260;28;20458;-48
2022/04/13 04:47:53;;;;;;;4.50;3.70;;;;;;;;;;4992386;28;20386;-51
2022/04/13 04:50:21;;;;;;;4.70;3.43;;;;;;;;;;4992386;28;20442;-46
2022/04/13 04:52:48;;;;;;;4.67;3.40;;;;;;;;;;4992720;28;20414;-46
2022/04/13 04:55:16;;;;;;;4.50;3.17;;;;;;;;;;4992064;28;20990;-47
2022/04/13 04:57:42;;;;;;;3.73;3.27;;;;;;;;;;4992434;28;20478;-46
2022/04/13 05:00:11;;;;;;;9.70;3.43;;;;;;;;;;4992351;28;20407;-47
2022/04/13 05:02:37;;;;;;;3.17;2.97;;;;;;;;;;4992198;28;20432;-50
2022/04/13 05:05:04;;;;;;;6.83;3.50;;;;;;;;;;4994195;28;20438;-48
2022/04/13 05:07:30;;;;;;;6.27;3.17;;;;;;;;;;4995837;28;20412;-49
2022/04/13 05:09:56;;;;;;;4.10;3.70;;;;;;;;;;4995835;28;20411;-48
2022/04/13 05:12:22;;;;;;;5.77;3.70;;;;;;;;;;4995546;28;20410;-50
2022/04/13 05:14:48;;;;;;;6.07;3.20;;;;;;;;;;4995388;28;20903;-50
2022/04/13 05:17:15;;;;;;;10.73;3.40;;;;;;;;;;4995613;28;20383;-46
2022/04/13 05:19:41;;;;;;;4.80;3.77;;;;;;;;;;4995581;28;20549;-48
2022/04/13 05:22:06;;;;;;;7.30;3.80;;;;;;;;;;4995645;28;20961;-50
2022/04/13 05:24:32;;;;;;;14.57;4.60;;;;;;;;;;4995150;28;20449;-50
2022/04/13 05:26:58;;;;;;;6.00;3.43;;;;;;;;;;4995607;28;20374;-46
2022/04/13 05:29:25;;;;;;;6.97;4.00;;;;;;;;;;4995363;28;20369;-47
2022/04/13 05:31:51;;;;;;;4.10;3.80;;;;;;;;;;4995325;28;20819;-46
2022/04/13 05:34:17;;;;;;;6.43;3.90;;;;;;;;;;4995106;28;20402;-47
2022/04/13 05:36:42;;;;;;;8.30;4.93;;;;;;;;;;4995240;28;20465;-47
2022/04/13 05:39:08;;;;;;;12.93;5.10;;;;;;;;;;4995280;28;20888;-49
2022/04/13 05:41:35;;;;;;;15.13;6.73;;;;;;;;;;4995130;28;20446;-47
2022/04/13 05:44:01;;;;;;;15.37;6.90;;;;;;;;;;4995206;28;20415;-47
2022/04/13 05:46:27;;;;;;;8.80;5.77;;;;;;;;;;4995208;28;20885;-46
2022/04/13 05:48:53;;;;;;;14.97;7.03;;;;;;;;;;4995364;28;20408;-47
2022/04/13 05:51:20;;;;;;;20.07;7.47;;;;;;;;;;4994850;28;20464;-48
2022/04/13 05:53:46;;;;;;;10.20;5.77;;;;;;;;;;4994972;28;20394;-47
2022/04/13 05:56:12;;;;;;;26.87;8.37;;;;;;;;;;4994671;28;20804;-47
2022/04/13 05:58:38;;;;;;;19.33;11.17;;;;;;;;;;4994803;28;20403;-46
2022/04/13 06:01:04;;;;;;;24.33;11.53;;;;;;;;;;4994793;28;20370;-48
2022/04/13 06:03:30;;;;;;;7.03;4.87;;;;;;;;;;4995584;28;20410;-49
2022/04/13 06:05:56;;;;;;;10.67;6.07;;;;;;;;;;4994513;28;20969;-50
2022/04/13 06:08:22;;;;;;;10.90;5.40;;;;;;;;;;4994689;28;20447;-49
2022/04/13 06:10:48;;;;;;;7.00;4.83;;;;;;;;;;4994736;28;20418;-50
2022/04/13 06:13:14;;;;;;;12.27;5.07;;;;;;;;;;4994622;28;20412;-49
2022/04/13 06:15:41;;;;;;;6.13;4.73;;;;;;;;;;4993660;28;20459;-48
2022/04/13 06:18:07;;;;;;;17.70;4.80;;;;;;;;;;4994795;28;20400;-48
2022/04/13 06:20:33;;;;;;;8.50;4.90;;;;;;;;;;4994443;28;20425;-49
2022/04/13 06:22:59;;;;;;;13.53;5.30;;;;;;;;;;4994479;28;20890;-50
2022/04/13 06:25:26;;;;;;;12.30;5.23;;;;;;;;;;4994039;28;20427;-51
2022/04/13 06:27:52;;;;;;;7.37;4.70;;;;;;;;;;4994395;28;20920;-48
2022/04/13 06:30:18;;;;;;;13.13;5.60;;;;;;;;;;4994094;28;20492;-48
2022/04/13 06:32:45;;;;;;;7.33;4.60;;;;;;;;;;4994243;28;20468;-48
2022/04/13 06:35:13;;;;;;;10.83;5.17;;;;;;;;;;4994062;28;20433;-48
2022/04/13 06:37:41;;;;;;;9.17;5.53;;;;;;;;;;4992451;28;20413;-48
2022/04/13 06:40:07;;;;;;;8.33;4.60;;;;;;;;;;4990153;28;20775;-48
2022/04/13 06:42:34;;;;;;;9.20;4.70;;;;;;;;;;4994363;28;20382;-49
2022/04/13 06:45:00;;;;;;;7.03;4.30;;;;;;;;;;4994152;28;20577;-50
2022/04/13 06:47:29;;;;;;;10.00;5.27;;;;;;;;;;4994470;28;20423;-48
2022/04/13 06:49:55;;;;;;;11.37;5.17;;;;;;;;;;4994431;28;20381;-48
2022/04/13 06:52:21;;;;;;;10.53;5.50;;;;;;;;;;4994373;28;20406;-51
2022/04/13 06:54:47;;;;;;;7.13;5.30;;;;;;;;;;4994076;28;20509;-50
2022/04/13 06:57:14;;;;;;;10.37;5.53;;;;;;;;;;4994389;28;20423;-48
2022/04/13 06:59:40;;;;;;;9.53;5.07;;;;;;;;;;4994296;28;20399;-49
2022/04/13 07:02:12;;;;;;;8.03;4.77;;;;;;;;;;4994155;28;20481;-49
2022/04/13 07:04:39;;;;;;;9.87;5.13;;;;;;;;;;4994345;28;20414;-48
2022/04/13 07:07:05;;;;;;;8.30;4.50;;;;;;;;;;4994160;28;20430;-49
2022/04/13 07:09:31;;;;;;;13.17;4.47;;;;;;;;;;4994124;28;20433;-50
2022/04/13 07:11:57;;;;;;;10.50;5.30;;;;;;;;;;4993979;28;20458;-49
2022/04/13 07:14:23;;;;;;;13.50;6.13;;;;;;;;;;4993772;28;20871;-48
2022/04/13 07:16:49;;;;;;;5.60;4.53;;;;;;;;;;4993790;28;20466;-48
2022/04/13 07:19:15;;;;;;;12.53;5.50;;;;;;;;;;4993877;28;20400;-50
2022/04/13 07:21:41;;;;;;;9.30;5.80;;;;;;;;;;4993789;28;20406;-50
2022/04/13 07:24:07;;;;;;;9.20;5.40;;;;;;;;;;4993789;28;20465;-51
2022/04/13 07:26:33;;;;;;;14.37;5.67;;;;;;;;;;4993434;28;20401;-49
2022/04/13 07:28:59;;;;;;;13.30;6.23;;;;;;;;;;4992840;28;20440;-49
2022/04/13 07:31:25;;;;;;;13.17;5.57;;;;;;;;;;4993642;28;21010;-49
2022/04/13 07:33:51;;;;;;;13.73;6.37;;;;;;;;;;4993738;28;20408;-50
2022/04/13 07:36:17;;;;;;;8.40;5.50;;;;;;;;;;4993302;28;20460;-49
2022/04/13 07:38:43;;;;;;;7.87;5.33;;;;;;;;;;4993368;28;20429;-48
2022/04/13 07:41:09;;;;;;;11.00;5.97;;;;;;;;;;4993465;28;20479;-49
2022/04/13 07:43:35;;;;;;;12.63;6.20;;;;;;;;;;4993333;28;20412;-49
2022/04/13 07:46:01;;;;;;;12.67;5.90;;;;;;;;;;4993117;28;20454;-49
2022/04/13 07:48:29;;;;;;;13.73;6.10;;;;;;;;;;4993425;28;20794;-51
2022/04/13 07:50:55;;;;;;;14.13;6.87;;;;;;;;;;4993249;28;20404;-50
2022/04/13 07:53:21;;;;;;;11.13;6.40;;;;;;;;;;4993166;28;20411;-49
2022/04/13 07:55:47;;;;;;;10.13;6.27;;;;;;;;;;4992693;28;20971;-49
2022/04/13 07:58:14;;;;;;;14.50;6.40;;;;;;;;;;4992541;28;20880;-51
2022/04/13 08:00:40;;;;;;;9.13;5.60;;;;;;;;;;4992411;28;20401;-50
2022/04/13 08:03:06;;;;;;;12.23;6.30;;;;;;;;;;4993324;28;20817;-50
2022/04/13 08:05:32;;;;;;;11.27;5.60;;;;;;;;;;4992891;28;20427;-49
2022/04/13 08:07:58;;;;;;;14.10;6.70;;;;;;;;;;4993072;28;20756;-50
2022/04/13 08:10:24;;;;;;;16.20;6.10;;;;;;;;;;4993061;28;20776;-50
2022/04/13 08:12:51;;;;;;;15.73;6.20;;;;;;;;;;4992709;28;20496;-49
2022/04/13 08:15:18;;;;;;;21.83;6.30;;;;;;;;;;4992603;28;20470;-49
2022/04/13 08:17:44;;;;;;;8.13;5.40;;;;;;;;;;4992877;28;20395;-50
2022/04/13 08:20:14;;;;;;;10.90;6.17;;;;;;;;;;4992922;28;21019;-50
2022/04/13 08:22:41;;;;;;;10.97;6.47;;;;;;;;;;4992642;28;20412;-49
2022/04/13 08:25:07;;;;;;;7.93;6.00;;;;;;;;;;4992583;28;20427;-49
2022/04/13 08:27:33;;;;;;;12.80;6.70;;;;;;;;;;4992626;28;20403;-49
2022/04/13 08:29:59;;;;;;;11.10;6.70;;;;;;;;;;4992818;28;20479;-49
2022/04/13 08:32:25;;;;;;;12.00;6.50;;;;;;;;;;4992592;28;20479;-50
2022/04/13 08:34:53;;;;;;;11.90;6.50;;;;;;;;;;4992278;28;20928;-50
2022/04/13 08:37:20;;;;;;;9.77;6.37;;;;;;;;;;4990557;28;20851;-50
2022/04/13 08:39:46;;;;;;;11.57;6.57;;;;;;;;;;4992026;28;20491;-50
2022/04/13 08:42:12;;;;;;;13.93;7.97;;;;;;;;;;4991487;28;20440;-49
2022/04/13 08:44:48;;;;;;;11.57;6.77;;;;;;;;;;4992163;28;20921;-50
2022/04/13 08:47:21;;;;;;;13.20;6.70;;;;;;;;;;4992460;28;20408;-50
2022/04/13 08:49:49;;;;;;;13.57;6.40;;;;;;;;;;4992291;28;20408;-49
2022/04/13 08:52:15;;;;;;;11.73;6.07;;;;;;;;;;4992352;28;20966;-50
2022/04/13 08:54:55;;;;;;;11.63;6.30;;;;;;;;;;4992423;28;20783;-50
2022/04/13 08:57:23;;;;;;;7.67;5.23;;;;;;;;;;4992498;28;20430;-50
2022/04/13 09:00:13;;;;;;;14.90;6.97;;;;;;;;;;4992288;28;20400;-51
2022/04/13 09:02:49;;;;;;;17.10;7.90;;;;;;;;;;4983957;28;20419;-50
2022/04/13 09:05:16;;;;;;;15.10;7.43;;;;;;;;;;4992066;28;20473;-50
2022/04/13 09:07:43;;;;;;;12.90;8.20;;;;;;;;;;4992206;28;20430;-50
2022/04/13 09:10:19;;;;;;;11.97;6.90;;;;;;;;;;4991331;28;20412;-49
2022/04/13 09:12:46;;;;;;;9.40;6.63;;;;;;;;;;4981102;28;20404;-49
2022/04/13 09:15:12;;;;;;;12.37;7.40;;;;;;;;;;4991792;28;20487;-49
2022/04/13 09:17:38;;;;;;;11.67;7.93;;;;;;;;;;4990710;28;20495;-49
2022/04/13 09:20:04;;;;;;;18.90;7.00;;;;;;;;;;4994520;28;20570;-51
2022/04/13 09:22:32;;;;;;;11.87;8.00;;;;;;;;;;5005862;28;20886;-51
2022/04/13 09:24:58;;;;;;;15.93;8.17;;;;;;;;;;4991460;28;20467;-50
2022/04/13 09:27:24;;;;;;;12.67;7.50;;;;;;;;;;5001588;28;20819;-50
2022/04/13 09:29:50;;;;;;;15.60;6.63;;;;;;;;;;5000820;28;20431;-49
2022/04/13 09:32:17;;;;;;;17.17;6.80;;;;;;;;;;4991733;28;20424;-50
2022/04/13 09:34:43;;;;;;;15.03;6.90;;;;;;;;;;4992622;28;20847;-52
2022/04/13 09:37:10;;;;;;;11.73;6.07;;;;;;;;;;4996584;28;20456;-49
2022/04/13 09:39:36;;;;;;;9.70;5.30;;;;;;;;;;4995835;28;20789;-49
2022/04/13 09:42:03;;;;;;;19.93;6.63;;;;;;;;;;5011051;28;20898;-50
2022/04/13 09:44:32;;;;;;;13.93;5.80;;;;;;;;;;5002279;28;20404;-50
2022/04/13 09:47:08;;;;;;;8.53;5.23;;;;;;;;;;4991582;28;20403;-52
2022/04/13 09:49:34;;;;;;;14.83;6.60;;;;;;;;;;4991904;28;20455;-50
2022/04/13 09:52:00;;;;;;;9.40;5.13;;;;;;;;;;4996443;28;20421;-51
2022/04/13 09:54:27;;;;;;;8.53;5.20;;;;;;;;;;5005329;28;20482;-50
2022/04/13 09:56:53;;;;;;;10.23;5.33;;;;;;;;;;4994366;28;20459;-52
2022/04/13 09:59:26;;;;;;;7.03;5.13;;;;;;;;;;4994877;28;20416;-51
2022/04/13 10:01:52;;;;;;;15.10;5.03;;;;;;;;;;4986824;28;20475;-50
2022/04/13 10:04:28;;;;;;;12.90;4.50;;;;;;;;;;4993305;28;20404;-52
2022/04/13 10:06:55;;;;;;;6.93;3.30;;;;;;;;;;4988469;28;20425;-50
2022/04/13 10:09:22;;;;;;;5.77;3.60;;;;;;;;;;4994625;28;20772;-53
2022/04/13 10:12:03;;;;;;;7.97;3.87;;;;;;;;;;4995021;28;20411;-51
2022/04/13 10:14:30;;;;;;;12.40;5.20;;;;;;;;;;4994918;28;20407;-53
2022/04/13 10:17:05;;;;;;;10.07;5.50;;;;;;;;;;4991074;28;20922;-49
2022/04/13 10:19:31;;;;;;;11.60;4.97;;;;;;;;;;4999860;28;20407;-51
2022/04/13 10:21:59;;;;;;;12.93;5.57;;;;;;;;;;4994991;28;20408;-51
2022/04/13 10:24:27;;;;;;;10.10;4.70;;;;;;;;;;4994728;28;20770;-49
2022/04/13 10:27:06;;;;;;;11.57;4.73;;;;;;;;;;5003496;28;20423;-51
2022/04/13 10:29:35;;;;;;;8.77;3.87;;;;;;;;;;5014467;28;20407;-52
2022/04/13 10:32:03;;;;;;;9.50;4.20;;;;;;;;;;5014091;28;20403;-49
2022/04/13 10:34:32;;;;;;;10.97;4.13;;;;;;;;;;5014169;28;20949;-49
2022/04/13 10:36:59;;;;;;;13.73;3.97;;;;;;;;;;5013352;28;20549;-50
2022/04/13 10:39:25;;;;;;;7.53;3.90;;;;;;;;;;5013526;28;20847;-49
2022/04/13 10:41:51;;;;;;;6.10;3.80;;;;;;;;;;5013355;28;20756;-50
2022/04/13 10:44:22;;;;;;;13.43;4.50;;;;;;;;;;5005447;28;20423;-48
2022/04/13 10:46:48;;;;;;;9.10;4.30;;;;;;;;;;4994390;28;20786;-48
2022/04/13 10:49:17;;;;;;;7.80;4.30;;;;;;;;;;4994364;28;20479;-52
2022/04/13 10:51:45;;;;;;;6.10;3.53;;;;;;;;;;4994164;28;20972;-52
2022/04/13 10:54:13;;;;;;;6.10;4.00;;;;;;;;;;4993971;28;20522;-50
2022/04/13 10:56:42;;;;;;;6.53;3.60;;;;;;;;;;4993267;28;20460;-49
2022/04/13 10:59:26;;;;;;;8.07;4.00;;;;;;;;;;4993486;28;20420;-49
2022/04/13 11:01:54;;;;;;;9.37;4.03;;;;;;;;;;4993260;28;20416;-52
2022/04/13 11:04:22;;;;;;;9.43;3.67;;;;;;;;;;4993990;28;20523;-50
2022/04/13 11:06:48;;;;;;;6.63;2.70;;;;;;;;;;4994386;28;21031;-50
2022/04/13 11:09:26;;;;;;;7.10;3.73;;;;;;;;;;4994913;28;20426;-50
2022/04/13 11:11:56;;;;;;;6.57;4.13;;;;;;;;;;4994167;28;20412;-51
2022/04/13 11:14:23;;;;;;;10.17;3.17;;;;;;;;;;4993847;28;20419;-50
2022/04/13 11:17:07;;;;;;;7.73;3.67;;;;;;;;;;4993850;28;20547;-50
2022/04/13 11:19:34;;;;;;;7.70;3.67;;;;;;;;;;4993852;28;20800;-50
2022/04/13 11:21:59;;;;;;;5.47;3.10;;;;;;;;;;4993699;28;20458;-50
2022/04/13 11:24:33;;;;;;;6.27;2.87;;;;;;;;;;4993641;28;20415;-51
2022/04/13 11:26:59;;;;;;;5.67;2.90;;;;;;;;;;5003335;28;20176;-50
2022/04/13 11:29:32;;;;;;;11.53;3.23;;;;;;;;;;5013346;28;20411;-50
2022/04/13 11:32:02;;;;;;;6.70;3.13;;;;;;;;;;5013169;28;20983;-50
2022/04/13 11:34:50;;;;;;;8.33;4.03;;;;;;;;;;5012940;28;20453;-50
2022/04/13 11:37:18;;;;;;;5.70;3.80;;;;;;;;;;5013103;28;20973;-53
2022/04/13 11:39:47;;;;;;;7.83;3.70;;;;;;;;;;5013296;28;20407;-53
2022/04/13 11:42:17;;;;;;;6.13;3.73;;;;;;;;;;5009662;28;20495;-52
2022/04/13 11:44:50;;;;;;;14.13;3.70;;;;;;;;;;4992336;28;20432;-54
2022/04/13 11:47:16;;;;;;;5.87;3.07;;;;;;;;;;4985916;28;20431;-52
2022/04/13 11:49:56;;;;;;;6.57;3.37;;;;;;;;;;4992276;28;20971;-52
2022/04/13 11:52:43;;;;;;;9.07;3.90;;;;;;;;;;4992281;28;20408;-53
2022/04/13 11:55:16;;;;;;;4.47;3.53;;;;;;;;;;4992586;28;20464;-53
2022/04/13 11:58:02;;;;;;;8.50;3.30;;;;;;;;;;4992063;28;20451;-52
2022/04/13 12:00:50;;;;;;;7.33;3.80;;;;;;;;;;4982110;28;20547;-53
2022/04/13 12:03:17;;;;;;;7.60;3.33;;;;;;;;;;4993110;28;20465;-48
2022/04/13 12:05:47;;;;;;;10.63;3.60;;;;;;;;;;4990758;28;20440;-51
2022/04/13 12:08:17;;;;;;;7.10;3.30;;;;;;;;;;4992228;28;20831;-50
2022/04/13 12:10:47;;;;;;;9.87;4.50;;;;;;;;;;4991357;28;20473;-47
2022/04/13 12:13:13;;;;;;;7.77;3.47;;;;;;;;;;4993570;28;20427;-51
2022/04/13 12:15:44;;;;;;;10.87;3.30;;;;;;;;;;4991978;28;20819;-51
2022/04/13 12:18:10;;;;;;;10.33;3.30;;;;;;;;;;4991978;28;20485;-50
2022/04/13 12:20:36;;;;;;;9.07;3.43;;;;;;;;;;4992625;28;20423;-50
2022/04/13 12:23:18;;;;;;;7.27;4.13;;;;;;;;;;4992558;28;20797;-51
2022/04/13 12:25:45;;;;;;;8.77;3.97;;;;;;;;;;4991611;28;20443;-50
2022/04/13 12:28:11;;;;;;;8.30;3.77;;;;;;;;;;5000881;28;20428;-48
2022/04/13 12:30:37;;;;;;;7.23;4.20;;;;;;;;;;4990148;28;20486;-50
2022/04/13 12:33:23;;;;;;;9.43;4.10;;;;;;;;;;4989999;28;20514;-50
2022/04/13 12:35:54;;;;;;;11.07;4.20;;;;;;;;;;4991251;28;20975;-50
2022/04/13 12:38:23;;;;;;;8.93;3.90;;;;;;;;;;4992156;28;20531;-50
2022/04/13 12:40:49;;;;;;;8.87;4.10;;;;;;;;;;4992320;28;20423;-48
2022/04/13 12:43:28;;;;;;;8.80;3.77;;;;;;;;;;4991794;28;20786;-48
2022/04/13 12:45:54;;;;;;;6.00;3.60;;;;;;;;;;4992017;28;20531;-48
2022/04/13 12:48:27;;;;;;;9.77;3.80;;;;;;;;;;4991748;28;20420;-48
2022/04/13 12:51:00;;;;;;;12.87;4.20;;;;;;;;;;4991809;28;20427;-49
2022/04/13 12:53:27;;;;;;;7.47;4.03;;;;;;;;;;4991816;28;20412;-48
2022/04/13 12:55:57;;;;;;;8.87;4.43;;;;;;;;;;4991962;28;20467;-48
2022/04/13 12:58:23;;;;;;;8.17;4.10;;;;;;;;;;4991690;28;20427;-48
2022/04/13 13:00:53;;;;;;;12.70;5.03;;;;;;;;;;4992067;28;20419;-51
2022/04/13 13:03:20;;;;;;;14.00;4.83;;;;;;;;;;4990529;28;20482;-49
2022/04/13 13:05:46;;;;;;;12.73;4.90;;;;;;;;;;4991402;28;20486;-49
2022/04/13 13:08:13;;;;;;;13.30;6.00;;;;;;;;;;4991968;28;20407;-49
2022/04/13 13:10:43;;;;;;;12.50;6.20;;;;;;;;;;4992235;28;20785;-49
2022/04/13 13:13:18;;;;;;;12.90;6.50;;;;;;;;;;4992041;28;20408;-50
2022/04/13 13:15:44;;;;;;;12.33;6.30;;;;;;;;;;4991899;28;21200;-48
2022/04/13 13:18:10;;;;;;;11.13;6.47;;;;;;;;;;4992006;28;20400;-48
2022/04/13 13:20:52;;;;;;;9.50;5.57;;;;;;;;;;4992019;28;20427;-48
2022/04/13 13:23:23;;;;;;;13.33;6.70;;;;;;;;;;4992009;28;20888;-50
2022/04/13 13:25:49;;;;;;;9.47;5.60;;;;;;;;;;4992321;28;20427;-48
2022/04/13 13:28:15;;;;;;;6.60;5.53;;;;;;;;;;5015522;28;20506;-48
2022/04/13 13:30:41;;;;;;;9.80;4.80;;;;;;;;;;5015521;28;20442;-49
2022/04/13 13:33:11;;;;;;;10.73;5.03;;;;;;;;;;5015213;28;20782;-48
2022/04/13 13:35:37;;;;;;;12.73;4.70;;;;;;;;;;5015110;28;20450;-50
2022/04/13 13:38:20;;;;;;;8.97;4.83;;;;;;;;;;5015271;28;20423;-49
2022/04/13 13:40:47;;;;;;;9.50;5.20;;;;;;;;;;5015289;28;20401;-48
2022/04/13 13:43:16;;;;;;;5.93;3.90;;;;;;;;;;5015238;28;20435;-49
2022/04/13 13:45:43;;;;;;;7.17;3.80;;;;;;;;;;5014787;28;20434;-48
2022/04/13 13:48:14;;;;;;;11.40;4.63;;;;;;;;;;5015890;28;20775;-48
2022/04/13 13:50:40;;;;;;;9.27;4.50;;;;;;;;;;5017222;28;20411;-48
2022/04/13 13:53:07;;;;;;;7.13;3.80;;;;;;;;;;5014495;28;20403;-47
2022/04/13 13:55:36;;;;;;;11.50;5.23;;;;;;;;;;5015019;28;20462;-48
2022/04/13 13:58:02;;;;;;;11.73;4.43;;;;;;;;;;5006874;28;20535;-48
2022/04/13 14:00:34;;;;;;;9.30;4.50;;;;;;;;;;4995099;28;20412;-51
2022/04/13 14:03:00;;;;;;;9.20;4.73;;;;;;;;;;4996855;28;20404;-47
2022/04/13 14:05:27;;;;;;;12.10;5.23;;;;;;;;;;4996676;28;20424;-47
2022/04/13 14:07:55;;;;;;;8.63;4.73;;;;;;;;;;4996458;28;20420;-51
2022/04/13 14:10:21;;;;;;;9.27;5.20;;;;;;;;;;4996544;28;20518;-49
2022/04/13 14:12:48;;;;;;;18.10;7.63;;;;;;;;;;4995947;28;20418;-51
2022/04/13 14:15:14;;;;;;;7.37;5.33;;;;;;;;;;4996634;28;20496;-50
2022/04/13 14:17:41;;;;;;;14.47;5.53;;;;;;;;;;4979674;28;20414;-52
2022/04/13 14:20:07;;;;;;;11.83;5.47;;;;;;;;;;4995938;28;20406;-48
2022/04/13 14:22:34;;;;;;;10.73;6.20;;;;;;;;;;4995924;28;20403;-47
2022/04/13 14:25:00;;;;;;;14.37;5.57;;;;;;;;;;4996849;28;20423;-48
2022/04/13 14:27:26;;;;;;;7.53;6.07;;;;;;;;;;5008958;28;20422;-47
2022/04/13 14:29:52;;;;;;;7.90;5.33;;;;;;;;;;5014647;28;20417;-48
2022/04/13 14:32:18;;;;;;;10.20;6.27;;;;;;;;;;5015733;28;20405;-49
2022/04/13 14:34:44;;;;;;;11.90;6.10;;;;;;;;;;5016187;28;20414;-51
2022/04/13 14:37:10;;;;;;;18.27;6.70;;;;;;;;;;5013069;28;20506;-52
2022/04/13 14:39:37;;;;;;;8.00;5.77;;;;;;;;;;5014329;28;20482;-51
2022/04/13 14:42:04;;;;;;;8.60;6.07;;;;;;;;;;5013906;28;20478;-53